sensor_id;sensor_type;location;lat;lon;timestamp;temperature;humidity
30063;DHT22;16889;67.864;24.990;2023-08-07T00:03:03;9.80;99.90
30063;DHT22;16889;67.864;24.990;2023-08-07T00:07:49;9.60;99.90
30063;DHT22;16889;67.864;24.990;2023-08-07T00:12:35;9.50;99.90
30063;DHT22;16889;67.864;24.990;2023-08-07T00:17:21;9.60;99.90
30063;DHT22;16889;67.864;24.990;2023-08-07T00:22:07;9.70;99.90
30063;DHT22;16889;67.864;24.990;2023-08-07T00:26:53;9.60;99.90
30063;DHT22;16889;67.864;24.990;2023-08-07T00:31:39;9.60;99.90
30063;DHT22;16889;67.864;24.990;2023-08-07T00:36:25;9.70;99.90
30063;DHT22;16889;67.864;24.990;2023-08-07T00:41:15;9.60;99.90
30063;DHT22;16889;67.864;24.990;2023-08-07T00:46:02;9.50;99.90
30063;DHT22;16889;67.864;24.990;2023-08-07T00:50:48;9.50;99.90
30063;DHT22;16889;67.864;24.990;2023-08-07T00:55:35;9.40;99.90
30063;DHT22;16889;67.864;24.990;2023-08-07T01:00:21;9.40;99.90
30063;DHT22;16889;67.864;24.990;2023-08-07T01:05:07;9.40;99.90
30063;DHT22;16889;67.864;24.990;2023-08-07T01:09:54;9.30;99.90
30063;DHT22;16889;67.864;24.990;2023-08-07T01:19:36;9.20;99.90
30063;DHT22;16889;67.864;24.990;2023-08-07T01:24:22;9.20;99.90
30063;DHT22;16889;67.864;24.990;2023-08-07T01:29:23;9.20;99.90
30063;DHT22;16889;67.864;24.990;2023-08-07T01:34:12;9.10;99.90
30063;DHT22;16889;67.864;24.990;2023-08-07T01:39:01;9.20;99.90
30063;DHT22;16889;67.864;24.990;2023-08-07T01:43:49;9.20;99.90
30063;DHT22;16889;67.864;24.990;2023-08-07T01:48:35;9.30;99.90
30063;DHT22;16889;67.864;24.990;2023-08-07T01:53:21;9.30;99.90
30063;DHT22;16889;67.864;24.990;2023-08-07T01:58:07;9.50;99.90
30063;DHT22;16889;67.864;24.990;2023-08-07T02:02:53;9.60;99.90
30063;DHT22;16889;67.864;24.990;2023-08-07T02:07:39;9.50;99.90
30063;DHT22;16889;67.864;24.990;2023-08-07T02:12:25;9.70;99.90
30063;DHT22;16889;67.864;24.990;2023-08-07T02:17:12;9.80;99.90
30063;DHT22;16889;67.864;24.990;2023-08-07T02:21:58;9.90;99.90
30063;DHT22;16889;67.864;24.990;2023-08-07T02:26:44;10.10;99.90
30063;DHT22;16889;67.864;24.990;2023-08-07T02:31:30;10.30;99.90
30063;DHT22;16889;67.864;24.990;2023-08-07T02:36:16;10.40;99.90
30063;DHT22;16889;67.864;24.990;2023-08-07T02:41:02;10.40;99.90
30063;DHT22;16889;67.864;24.990;2023-08-07T02:45:48;10.60;99.90
30063;DHT22;16889;67.864;24.990;2023-08-07T02:50:35;10.60;99.90
30063;DHT22;16889;67.864;24.990;2023-08-07T02:55:21;10.70;99.90
30063;DHT22;16889;67.864;24.990;2023-08-07T03:00:08;10.60;99.90
30063;DHT22;16889;67.864;24.990;2023-08-07T03:04:54;10.60;99.90
30063;DHT22;16889;67.864;24.990;2023-08-07T03:09:40;10.80;99.90
30063;DHT22;16889;67.864;24.990;2023-08-07T03:14:26;10.90;99.90
30063;DHT22;16889;67.864;24.990;2023-08-07T03:19:12;11.00;99.90
30063;DHT22;16889;67.864;24.990;2023-08-07T03:23:58;11.10;99.90
30063;DHT22;16889;67.864;24.990;2023-08-07T03:28:45;11.00;99.90
30063;DHT22;16889;67.864;24.990;2023-08-07T03:33:32;11.00;99.90
30063;DHT22;16889;67.864;24.990;2023-08-07T03:38:18;11.10;99.90
30063;DHT22;16889;67.864;24.990;2023-08-07T03:43:05;11.20;99.90
30063;DHT22;16889;67.864;24.990;2023-08-07T03:47:51;11.50;99.90
30063;DHT22;16889;67.864;24.990;2023-08-07T03:52:37;11.80;99.90
30063;DHT22;16889;67.864;24.990;2023-08-07T03:57:23;12.00;99.90
30063;DHT22;16889;67.864;24.990;2023-08-07T04:02:09;12.30;99.90
30063;DHT22;16889;67.864;24.990;2023-08-07T04:06:54;12.50;99.90
30063;DHT22;16889;67.864;24.990;2023-08-07T04:11:40;12.70;99.90
30063;DHT22;16889;67.864;24.990;2023-08-07T04:16:26;12.70;99.90
30063;DHT22;16889;67.864;24.990;2023-08-07T04:21:12;12.50;99.90
30063;DHT22;16889;67.864;24.990;2023-08-07T04:25:59;12.50;99.90
30063;DHT22;16889;67.864;24.990;2023-08-07T04:30:49;12.60;99.90
30063;DHT22;16889;67.864;24.990;2023-08-07T04:35:39;12.80;99.90
30063;DHT22;16889;67.864;24.990;2023-08-07T04:40:25;12.90;99.90
30063;DHT22;16889;67.864;24.990;2023-08-07T04:45:11;13.00;99.90
30063;DHT22;16889;67.864;24.990;2023-08-07T04:49:57;13.00;99.90
30063;DHT22;16889;67.864;24.990;2023-08-07T04:54:43;13.00;99.90
30063;DHT22;16889;67.864;24.990;2023-08-07T04:59:29;13.10;99.90
30063;DHT22;16889;67.864;24.990;2023-08-07T05:04:16;13.10;99.90
30063;DHT22;16889;67.864;24.990;2023-08-07T05:09:02;13.10;99.90
30063;DHT22;16889;67.864;24.990;2023-08-07T05:13:49;13.10;99.90
30063;DHT22;16889;67.864;24.990;2023-08-07T05:18:35;13.30;99.90
30063;DHT22;16889;67.864;24.990;2023-08-07T05:23:21;13.20;99.90
30063;DHT22;16889;67.864;24.990;2023-08-07T05:28:07;13.10;99.90
30063;DHT22;16889;67.864;24.990;2023-08-07T05:32:53;13.10;99.90
30063;DHT22;16889;67.864;24.990;2023-08-07T05:37:39;13.00;99.90
30063;DHT22;16889;67.864;24.990;2023-08-07T05:42:25;13.00;99.90
30063;DHT22;16889;67.864;24.990;2023-08-07T05:47:11;13.10;99.90
30063;DHT22;16889;67.864;24.990;2023-08-07T05:51:57;13.10;99.90
30063;DHT22;16889;67.864;24.990;2023-08-07T05:56:43;13.20;99.90
30063;DHT22;16889;67.864;24.990;2023-08-07T06:01:29;13.60;99.90
30063;DHT22;16889;67.864;24.990;2023-08-07T06:06:16;13.70;99.90
30063;DHT22;16889;67.864;24.990;2023-08-07T06:11:02;13.80;99.90
30063;DHT22;16889;67.864;24.990;2023-08-07T06:15:50;13.90;99.90
30063;DHT22;16889;67.864;24.990;2023-08-07T06:20:36;14.00;99.90
30063;DHT22;16889;67.864;24.990;2023-08-07T06:25:22;13.80;99.90
30063;DHT22;16889;67.864;24.990;2023-08-07T06:30:08;13.80;99.90
30063;DHT22;16889;67.864;24.990;2023-08-07T06:34:54;13.80;99.90
30063;DHT22;16889;67.864;24.990;2023-08-07T06:39:40;13.90;99.90
30063;DHT22;16889;67.864;24.990;2023-08-07T06:44:28;14.10;99.90
30063;DHT22;16889;67.864;24.990;2023-08-07T06:49:14;14.40;99.90
30063;DHT22;16889;67.864;24.990;2023-08-07T06:53:59;14.50;99.90
30063;DHT22;16889;67.864;24.990;2023-08-07T06:58:45;14.60;99.90
30063;DHT22;16889;67.864;24.990;2023-08-07T07:03:31;14.80;99.90
30063;DHT22;16889;67.864;24.990;2023-08-07T07:08:17;14.90;99.90
30063;DHT22;16889;67.864;24.990;2023-08-07T07:13:03;15.10;99.90
30063;DHT22;16889;67.864;24.990;2023-08-07T07:17:49;15.30;99.90
30063;DHT22;16889;67.864;24.990;2023-08-07T07:22:37;15.40;99.90
30063;DHT22;16889;67.864;24.990;2023-08-07T07:27:23;15.30;99.90
30063;DHT22;16889;67.864;24.990;2023-08-07T07:32:11;15.10;99.90
30063;DHT22;16889;67.864;24.990;2023-08-07T07:36:57;15.00;99.90
30063;DHT22;16889;67.864;24.990;2023-08-07T07:41:43;15.00;99.90
30063;DHT22;16889;67.864;24.990;2023-08-07T07:46:30;15.10;99.90
30063;DHT22;16889;67.864;24.990;2023-08-07T07:51:18;15.30;99.90
30063;DHT22;16889;67.864;24.990;2023-08-07T07:56:04;15.20;99.90
30063;DHT22;16889;67.864;24.990;2023-08-07T08:00:50;15.20;99.90
30063;DHT22;16889;67.864;24.990;2023-08-07T08:05:39;15.20;99.90
30063;DHT22;16889;67.864;24.990;2023-08-07T08:10:25;15.30;99.90
30063;DHT22;16889;67.864;24.990;2023-08-07T08:15:11;15.20;99.90
30063;DHT22;16889;67.864;24.990;2023-08-07T08:19:57;15.30;99.90
30063;DHT22;16889;67.864;24.990;2023-08-07T08:24:43;15.30;99.90
30063;DHT22;16889;67.864;24.990;2023-08-07T08:29:29;15.50;99.90
30063;DHT22;16889;67.864;24.990;2023-08-07T08:34:15;15.70;99.90
30063;DHT22;16889;67.864;24.990;2023-08-07T08:39:01;15.90;99.90
30063;DHT22;16889;67.864;24.990;2023-08-07T08:43:48;16.30;99.90
30063;DHT22;16889;67.864;24.990;2023-08-07T08:48:36;16.50;99.90
30063;DHT22;16889;67.864;24.990;2023-08-07T08:53:24;16.70;99.90
30063;DHT22;16889;67.864;24.990;2023-08-07T08:58:11;16.70;99.90
30063;DHT22;16889;67.864;24.990;2023-08-07T09:02:57;17.00;99.90
30063;DHT22;16889;67.864;24.990;2023-08-07T09:07:44;17.20;99.90
30063;DHT22;16889;67.864;24.990;2023-08-07T09:12:33;17.40;99.90
30063;DHT22;16889;67.864;24.990;2023-08-07T09:17:21;17.70;99.90
30063;DHT22;16889;67.864;24.990;2023-08-07T09:22:09;18.30;99.90
30063;DHT22;16889;67.864;24.990;2023-08-07T09:26:55;18.50;99.90
30063;DHT22;16889;67.864;24.990;2023-08-07T09:31:43;18.20;99.90
30063;DHT22;16889;67.864;24.990;2023-08-07T09:36:34;18.20;99.90
30063;DHT22;16889;67.864;24.990;2023-08-07T09:41:21;18.40;99.90
30063;DHT22;16889;67.864;24.990;2023-08-07T09:46:08;18.40;99.90
30063;DHT22;16889;67.864;24.990;2023-08-07T09:50:54;18.40;99.90
30063;DHT22;16889;67.864;24.990;2023-08-07T09:55:44;18.80;99.90
30063;DHT22;16889;67.864;24.990;2023-08-07T10:00:34;19.20;99.90
30063;DHT22;16889;67.864;24.990;2023-08-07T10:05:21;19.10;99.90
30063;DHT22;16889;67.864;24.990;2023-08-07T10:10:08;19.20;99.90
30063;DHT22;16889;67.864;24.990;2023-08-07T10:14:55;19.30;99.90
30063;DHT22;16889;67.864;24.990;2023-08-07T10:19:42;19.60;99.90
30063;DHT22;16889;67.864;24.990;2023-08-07T10:24:30;20.30;99.90
30063;DHT22;16889;67.864;24.990;2023-08-07T10:29:18;20.80;99.90
30063;DHT22;16889;67.864;24.990;2023-08-07T10:34:05;20.70;99.90
30063;DHT22;16889;67.864;24.990;2023-08-07T10:39:09;20.70;99.90
30063;DHT22;16889;67.864;24.990;2023-08-07T10:43:56;20.70;99.90
30063;DHT22;16889;67.864;24.990;2023-08-07T10:48:46;20.70;99.90
30063;DHT22;16889;67.864;24.990;2023-08-07T10:53:53;20.70;99.90
30063;DHT22;16889;67.864;24.990;2023-08-07T10:58:41;20.50;99.90
30063;DHT22;16889;67.864;24.990;2023-08-07T11:03:27;20.50;99.90
30063;DHT22;16889;67.864;24.990;2023-08-07T11:08:13;20.50;99.90
30063;DHT22;16889;67.864;24.990;2023-08-07T11:12:59;20.40;99.90
30063;DHT22;16889;67.864;24.990;2023-08-07T11:17:45;20.20;99.90
30063;DHT22;16889;67.864;24.990;2023-08-07T11:22:31;20.20;99.90
30063;DHT22;16889;67.864;24.990;2023-08-07T11:27:17;20.30;99.90
30063;DHT22;16889;67.864;24.990;2023-08-07T11:32:04;20.70;99.90
30063;DHT22;16889;67.864;24.990;2023-08-07T11:36:50;21.10;99.90
30063;DHT22;16889;67.864;24.990;2023-08-07T11:41:36;21.40;99.90
30063;DHT22;16889;67.864;24.990;2023-08-07T11:46:22;21.40;99.90
30063;DHT22;16889;67.864;24.990;2023-08-07T11:51:08;21.20;99.90
30063;DHT22;16889;67.864;24.990;2023-08-07T11:56:03;21.10;99.90
30063;DHT22;16889;67.864;24.990;2023-08-07T12:00:51;21.00;99.90
30063;DHT22;16889;67.864;24.990;2023-08-07T12:05:40;20.80;99.90
30063;DHT22;16889;67.864;24.990;2023-08-07T12:10:26;20.50;99.90
30063;DHT22;16889;67.864;24.990;2023-08-07T12:15:12;20.40;99.90
30063;DHT22;16889;67.864;24.990;2023-08-07T12:19:58;20.30;99.90
30063;DHT22;16889;67.864;24.990;2023-08-07T12:24:45;20.10;99.90
30063;DHT22;16889;67.864;24.990;2023-08-07T12:29:31;20.00;99.90
30063;DHT22;16889;67.864;24.990;2023-08-07T12:34:17;19.90;99.90
30063;DHT22;16889;67.864;24.990;2023-08-07T12:39:03;19.80;99.90
30063;DHT22;16889;67.864;24.990;2023-08-07T12:43:51;19.60;99.90
30063;DHT22;16889;67.864;24.990;2023-08-07T12:48:37;19.30;99.90
30063;DHT22;16889;67.864;24.990;2023-08-07T12:53:24;18.80;99.90
30063;DHT22;16889;67.864;24.990;2023-08-07T12:58:10;18.70;99.90
30063;DHT22;16889;67.864;24.990;2023-08-07T13:02:56;18.60;99.90
30063;DHT22;16889;67.864;24.990;2023-08-07T13:07:43;18.60;99.90
30063;DHT22;16889;67.864;24.990;2023-08-07T13:12:29;18.70;99.90
30063;DHT22;16889;67.864;24.990;2023-08-07T13:17:15;18.80;99.90
30063;DHT22;16889;67.864;24.990;2023-08-07T13:22:01;18.80;99.90
30063;DHT22;16889;67.864;24.990;2023-08-07T13:26:47;19.00;99.90
30063;DHT22;16889;67.864;24.990;2023-08-07T13:31:33;19.10;99.90
30063;DHT22;16889;67.864;24.990;2023-08-07T13:36:19;19.00;99.90
30063;DHT22;16889;67.864;24.990;2023-08-07T13:41:05;19.00;99.90
30063;DHT22;16889;67.864;24.990;2023-08-07T13:45:51;18.70;99.90
30063;DHT22;16889;67.864;24.990;2023-08-07T13:50:37;18.40;99.90
30063;DHT22;16889;67.864;24.990;2023-08-07T13:55:26;17.90;99.90
30063;DHT22;16889;67.864;24.990;2023-08-07T14:00:13;17.70;99.90
30063;DHT22;16889;67.864;24.990;2023-08-07T14:05:02;17.50;99.90
30063;DHT22;16889;67.864;24.990;2023-08-07T14:09:48;17.60;99.90
30063;DHT22;16889;67.864;24.990;2023-08-07T14:14:34;17.70;99.90
30063;DHT22;16889;67.864;24.990;2023-08-07T14:19:20;17.70;99.90
30063;DHT22;16889;67.864;24.990;2023-08-07T14:24:06;17.70;99.90
30063;DHT22;16889;67.864;24.990;2023-08-07T14:28:52;17.70;99.90
30063;DHT22;16889;67.864;24.990;2023-08-07T14:33:39;17.60;99.90
30063;DHT22;16889;67.864;24.990;2023-08-07T14:38:25;17.70;99.90
30063;DHT22;16889;67.864;24.990;2023-08-07T14:43:11;17.70;99.90
30063;DHT22;16889;67.864;24.990;2023-08-07T14:47:58;18.10;99.90
30063;DHT22;16889;67.864;24.990;2023-08-07T14:52:44;18.20;99.90
30063;DHT22;16889;67.864;24.990;2023-08-07T14:57:30;18.10;99.90
30063;DHT22;16889;67.864;24.990;2023-08-07T15:02:16;18.30;99.90
30063;DHT22;16889;67.864;24.990;2023-08-07T15:07:02;18.50;99.90
30063;DHT22;16889;67.864;24.990;2023-08-07T15:11:49;18.70;99.90
30063;DHT22;16889;67.864;24.990;2023-08-07T15:16:35;18.60;99.90
30063;DHT22;16889;67.864;24.990;2023-08-07T15:21:23;18.50;99.90
30063;DHT22;16889;67.864;24.990;2023-08-07T15:26:09;18.50;99.90
30063;DHT22;16889;67.864;24.990;2023-08-07T15:30:55;18.30;99.90
30063;DHT22;16889;67.864;24.990;2023-08-07T15:35:41;18.10;99.90
30063;DHT22;16889;67.864;24.990;2023-08-07T15:40:27;18.00;99.90
30063;DHT22;16889;67.864;24.990;2023-08-07T15:45:13;17.80;99.90
30063;DHT22;16889;67.864;24.990;2023-08-07T15:49:59;17.70;99.90
30063;DHT22;16889;67.864;24.990;2023-08-07T15:54:46;17.70;99.90
30063;DHT22;16889;67.864;24.990;2023-08-07T15:59:32;17.80;99.90
30063;DHT22;16889;67.864;24.990;2023-08-07T16:04:18;17.80;99.90
30063;DHT22;16889;67.864;24.990;2023-08-07T16:09:04;17.80;99.90
30063;DHT22;16889;67.864;24.990;2023-08-07T16:13:50;17.90;99.90
30063;DHT22;16889;67.864;24.990;2023-08-07T16:18:37;17.90;99.90
30063;DHT22;16889;67.864;24.990;2023-08-07T16:23:23;17.90;99.90
30063;DHT22;16889;67.864;24.990;2023-08-07T16:28:09;17.90;99.90
30063;DHT22;16889;67.864;24.990;2023-08-07T16:32:55;18.10;99.90
30063;DHT22;16889;67.864;24.990;2023-08-07T16:37:41;18.10;99.90
30063;DHT22;16889;67.864;24.990;2023-08-07T16:42:30;18.10;99.90
30063;DHT22;16889;67.864;24.990;2023-08-07T16:47:16;18.10;99.90
30063;DHT22;16889;67.864;24.990;2023-08-07T16:52:03;18.20;99.90
30063;DHT22;16889;67.864;24.990;2023-08-07T16:56:50;18.20;99.90
30063;DHT22;16889;67.864;24.990;2023-08-07T17:01:36;18.20;99.90
30063;DHT22;16889;67.864;24.990;2023-08-07T17:06:22;18.20;99.90
30063;DHT22;16889;67.864;24.990;2023-08-07T17:11:08;18.10;99.90
30063;DHT22;16889;67.864;24.990;2023-08-07T17:15:54;18.00;99.90
30063;DHT22;16889;67.864;24.990;2023-08-07T17:20:40;18.00;99.90
30063;DHT22;16889;67.864;24.990;2023-08-07T17:25:26;18.10;99.90
30063;DHT22;16889;67.864;24.990;2023-08-07T17:30:12;18.10;99.90
30063;DHT22;16889;67.864;24.990;2023-08-07T17:34:58;18.20;99.90
30063;DHT22;16889;67.864;24.990;2023-08-07T17:39:46;18.20;99.90
30063;DHT22;16889;67.864;24.990;2023-08-07T17:44:31;18.10;99.90
30063;DHT22;16889;67.864;24.990;2023-08-07T17:49:17;18.10;99.90
30063;DHT22;16889;67.864;24.990;2023-08-07T17:54:03;18.10;99.90
30063;DHT22;16889;67.864;24.990;2023-08-07T17:58:51;18.00;99.90
30063;DHT22;16889;67.864;24.990;2023-08-07T18:03:37;18.00;99.90
30063;DHT22;16889;67.864;24.990;2023-08-07T18:08:23;18.00;99.90
30063;DHT22;16889;67.864;24.990;2023-08-07T18:13:09;18.10;99.90
30063;DHT22;16889;67.864;24.990;2023-08-07T18:17:55;18.00;99.90
30063;DHT22;16889;67.864;24.990;2023-08-07T18:22:41;17.90;99.90
30063;DHT22;16889;67.864;24.990;2023-08-07T18:27:27;17.80;99.90
30063;DHT22;16889;67.864;24.990;2023-08-07T18:32:13;17.70;99.90
30063;DHT22;16889;67.864;24.990;2023-08-07T18:36:59;17.60;99.90
30063;DHT22;16889;67.864;24.990;2023-08-07T18:41:45;17.60;99.90
30063;DHT22;16889;67.864;24.990;2023-08-07T18:46:31;17.50;99.90
30063;DHT22;16889;67.864;24.990;2023-08-07T18:51:18;17.40;99.90
30063;DHT22;16889;67.864;24.990;2023-08-07T18:56:04;17.40;99.90
30063;DHT22;16889;67.864;24.990;2023-08-07T19:00:50;17.40;99.90
30063;DHT22;16889;67.864;24.990;2023-08-07T19:05:36;17.50;99.90
30063;DHT22;16889;67.864;24.990;2023-08-07T19:10:22;17.40;99.90
30063;DHT22;16889;67.864;24.990;2023-08-07T19:15:08;17.20;99.90
30063;DHT22;16889;67.864;24.990;2023-08-07T19:19:58;17.00;99.90
30063;DHT22;16889;67.864;24.990;2023-08-07T19:24:44;16.80;99.90
30063;DHT22;16889;67.864;24.990;2023-08-07T19:29:30;16.60;99.90
30063;DHT22;16889;67.864;24.990;2023-08-07T19:34:16;16.60;99.90
30063;DHT22;16889;67.864;24.990;2023-08-07T19:39:03;16.40;99.90
30063;DHT22;16889;67.864;24.990;2023-08-07T19:43:49;16.30;99.90
30063;DHT22;16889;67.864;24.990;2023-08-07T19:48:35;16.30;99.90
30063;DHT22;16889;67.864;24.990;2023-08-07T19:53:21;16.10;99.90
30063;DHT22;16889;67.864;24.990;2023-08-07T19:58:07;15.90;99.90
30063;DHT22;16889;67.864;24.990;2023-08-07T20:02:53;15.80;99.90
30063;DHT22;16889;67.864;24.990;2023-08-07T20:07:39;15.80;99.90
30063;DHT22;16889;67.864;24.990;2023-08-07T20:12:25;15.70;99.90
30063;DHT22;16889;67.864;24.990;2023-08-07T20:17:11;15.60;99.90
30063;DHT22;16889;67.864;24.990;2023-08-07T20:21:58;15.60;99.90
30063;DHT22;16889;67.864;24.990;2023-08-07T20:26:44;15.70;99.90
30063;DHT22;16889;67.864;24.990;2023-08-07T20:31:30;15.70;99.90
30063;DHT22;16889;67.864;24.990;2023-08-07T20:36:16;15.80;99.90
30063;DHT22;16889;67.864;24.990;2023-08-07T20:41:03;15.80;99.90
30063;DHT22;16889;67.864;24.990;2023-08-07T20:45:49;15.80;99.90
30063;DHT22;16889;67.864;24.990;2023-08-07T20:50:35;15.90;99.90
30063;DHT22;16889;67.864;24.990;2023-08-07T20:55:21;15.90;99.90
30063;DHT22;16889;67.864;24.990;2023-08-07T21:00:08;15.90;99.90
30063;DHT22;16889;67.864;24.990;2023-08-07T21:04:54;16.00;99.90
30063;DHT22;16889;67.864;24.990;2023-08-07T21:09:40;15.90;99.90
30063;DHT22;16889;67.864;24.990;2023-08-07T21:14:26;16.00;99.90
30063;DHT22;16889;67.864;24.990;2023-08-07T21:19:12;15.90;99.90
30063;DHT22;16889;67.864;24.990;2023-08-07T21:23:58;16.00;99.90
30063;DHT22;16889;67.864;24.990;2023-08-07T21:28:45;16.00;99.90
30063;DHT22;16889;67.864;24.990;2023-08-07T21:33:33;15.80;99.90
30063;DHT22;16889;67.864;24.990;2023-08-07T21:38:19;15.80;99.90
30063;DHT22;16889;67.864;24.990;2023-08-07T21:43:05;15.80;99.90
30063;DHT22;16889;67.864;24.990;2023-08-07T21:47:51;15.60;99.90
30063;DHT22;16889;67.864;24.990;2023-08-07T21:52:37;15.60;99.90
30063;DHT22;16889;67.864;24.990;2023-08-07T21:57:23;15.50;99.90
30063;DHT22;16889;67.864;24.990;2023-08-07T22:02:09;15.30;99.90
30063;DHT22;16889;67.864;24.990;2023-08-07T22:06:55;15.30;99.90
30063;DHT22;16889;67.864;24.990;2023-08-07T22:11:41;15.20;99.90
30063;DHT22;16889;67.864;24.990;2023-08-07T22:16:27;15.20;99.90
30063;DHT22;16889;67.864;24.990;2023-08-07T22:21:13;15.10;99.90
30063;DHT22;16889;67.864;24.990;2023-08-07T22:25:59;15.10;99.90
30063;DHT22;16889;67.864;24.990;2023-08-07T22:30:45;15.00;99.90
30063;DHT22;16889;67.864;24.990;2023-08-07T22:35:31;14.90;99.90
30063;DHT22;16889;67.864;24.990;2023-08-07T22:40:17;15.00;99.90
30063;DHT22;16889;67.864;24.990;2023-08-07T22:45:03;14.90;99.90
30063;DHT22;16889;67.864;24.990;2023-08-07T22:49:49;14.80;99.90
30063;DHT22;16889;67.864;24.990;2023-08-07T22:54:35;14.80;99.90
30063;DHT22;16889;67.864;24.990;2023-08-07T22:59:21;14.80;99.90
30063;DHT22;16889;67.864;24.990;2023-08-07T23:04:07;14.80;99.90
30063;DHT22;16889;67.864;24.990;2023-08-07T23:08:53;14.70;99.90
30063;DHT22;16889;67.864;24.990;2023-08-07T23:13:40;14.70;99.90
30063;DHT22;16889;67.864;24.990;2023-08-07T23:18:26;14.70;99.90
30063;DHT22;16889;67.864;24.990;2023-08-07T23:23:11;14.70;99.90
30063;DHT22;16889;67.864;24.990;2023-08-07T23:27:57;14.60;99.90
30063;DHT22;16889;67.864;24.990;2023-08-07T23:32:43;14.60;99.90
30063;DHT22;16889;67.864;24.990;2023-08-07T23:37:29;14.60;99.90
30063;DHT22;16889;67.864;24.990;2023-08-07T23:42:15;14.50;99.90
30063;DHT22;16889;67.864;24.990;2023-08-07T23:47:01;14.30;99.90
30063;DHT22;16889;67.864;24.990;2023-08-07T23:51:48;14.30;99.90
30063;DHT22;16889;67.864;24.990;2023-08-07T23:56:34;14.20;99.90
